Time;durP1;ratioP1;P1;durP2;ratioP2;P2;SDS_P1;SDS_P2;PMS_P1;PMS_P2;Temp;Humidity;BMP_temperature;BMP_pressure;BME280_temperature;BME280_humidity;BME280_pressure;Samples;Min_cycle;Max_cycle;Signal;HPM_P1;HPM_P2
2023/08/28 08:35:34;;;;;;;;;1.00;1.00;;;;;24.04;43.46;100831.59;4957917;28;45232;-41
2023/08/28 08:38:00;;;;;;;;;1.00;1.00;;;;;24.07;43.57;100830.53;4958117;28;45761;-43
2023/08/28 08:40:26;;;;;;;;;1.50;1.50;;;;;24.07;43.19;100828.75;4958255;28;45420;-40
2023/08/28 08:42:53;;;;;;;;;1.75;1.00;;;;;24.08;43.36;100827.78;4958030;28;46158;-40
2023/08/28 08:45:23;;;;;;;;;1.75;1.75;;;;;24.07;43.46;100825.22;4957588;28;45333;-41
2023/08/28 08:47:53;;;;;;;;;2.00;1.00;;;;;24.11;43.21;100825.84;4958150;28;45401;-41
2023/08/28 08:50:20;;;;;;;;;0.50;0.50;;;;;24.09;43.37;100826.81;4958233;28;45345;-43
2023/08/28 08:52:47;;;;;;;;;1.50;1.25;;;;;24.13;43.42;100831.91;4957756;28;45953;-42
2023/08/28 08:55:19;;;;;;;;;2.25;0.75;;;;;24.13;43.43;100834.53;4957863;28;45568;-44
2023/08/28 08:57:47;;;;;;;;;1.00;1.00;;;;;24.12;43.23;100827.56;4957802;28;45500;-40
2023/08/28 09:00:15;;;;;;;;;1.25;1.25;;;;;24.12;43.05;100827.56;4958027;28;45528;-42
2023/08/28 09:02:41;;;;;;;;;1.75;1.75;;;;;24.14;43.70;100829.16;4957379;28;47707;-44
2023/08/28 09:05:09;;;;;;;;;4.75;1.00;;;;;24.14;43.46;100828.28;4958033;28;45405;-39
2023/08/28 09:07:35;;;;;;;;;4.00;1.00;;;;;24.16;43.25;100834.34;4958055;28;45416;-39
2023/08/28 09:10:02;;;;;;;;;1.00;1.00;;;;;24.15;43.90;100832.63;4957949;28;45623;-42
2023/08/28 09:12:28;;;;;;;;;1.00;1.00;;;;;24.16;43.09;100836.97;4957521;28;47214;-40
2023/08/28 09:14:53;;;;;;;;;1.00;1.00;;;;;24.16;43.27;100829.88;4957527;28;45366;-42
2023/08/28 09:17:19;;;;;;;;;2.25;1.00;;;;;24.18;43.31;100829.78;4957597;28;45468;-42
2023/08/28 09:19:44;;;;;;;;;0.00;0.00;;;;;24.17;43.55;100828.91;4957783;28;45402;-41
2023/08/28 09:22:10;;;;;;;;;1.00;1.00;;;;;24.18;43.65;100829.78;4957039;28;47178;-39
2023/08/28 09:24:36;;;;;;;;;1.00;1.00;;;;;24.17;43.91;100834.22;4957555;28;45365;-41
2023/08/28 09:27:03;;;;;;;;;3.00;1.00;;;;;24.18;43.83;100819.19;4957607;28;45312;-41
2023/08/28 09:29:29;;;;;;;;;2.75;2.25;;;;;24.19;43.91;100813.78;4957591;28;45511;-41
2023/08/28 09:32:03;;;;;;;;;2.25;1.00;;;;;24.20;43.95;100809.31;4957217;28;45364;-41
2023/08/28 09:34:37;;;;;;;;;2.50;1.00;;;;;24.22;43.63;100820.66;4957228;28;45747;-43
2023/08/28 09:37:03;;;;;;;;;2.75;2.00;;;;;24.22;43.36;100807.41;4957405;28;45393;-43
2023/08/28 09:39:28;;;;;;;;;2.00;2.00;;;;;24.22;43.57;100818.84;4957356;28;45278;-45
2023/08/28 09:41:54;;;;;;;;;1.00;1.00;;;;;24.24;43.41;100821.38;4957243;28;51383;-42
2023/08/28 09:44:19;;;;;;;;;1.75;1.25;;;;;24.25;43.34;100812.50;4959431;28;45356;-42
2023/08/28 09:46:47;;;;;;;;;2.25;2.00;;;;;24.29;43.02;100810.47;4960930;28;45862;-40
2023/08/28 09:49:13;;;;;;;;;1.00;1.00;;;;;24.29;43.44;100813.97;4960877;28;45350;-42
2023/08/28 09:51:44;;;;;;;;;2.00;2.00;;;;;24.29;43.79;100808.69;4960859;28;47040;-42
2023/08/28 09:54:10;;;;;;;;;1.00;1.00;;;;;24.30;43.62;100813.00;4961034;28;45331;-44
2023/08/28 09:56:37;;;;;;;;;1.75;1.75;;;;;24.29;43.32;100811.31;4960895;28;45294;-42
2023/08/28 09:59:03;;;;;;;;;2.00;2.00;;;;;24.31;43.13;100811.19;4960754;28;45560;-41
2023/08/28 10:01:33;;;;;;;;;1.00;1.00;;;;;24.29;43.31;100813.09;4960372;28;45414;-44
2023/08/28 10:04:01;;;;;;;;;3.00;2.00;;;;;24.28;43.65;100816.72;4960014;28;45753;-45
2023/08/28 10:06:29;;;;;;;;;1.00;1.00;;;;;24.28;43.59;100814.06;4960472;28;45353;-45
2023/08/28 10:08:58;;;;;;;;;1.75;1.75;;;;;24.27;43.70;100813.22;4960573;28;45443;-44
2023/08/28 10:11:30;;;;;;;;;1.25;1.25;;;;;24.26;43.76;100818.63;4960247;28;45981;-43
2023/08/28 10:13:56;;;;;;;;;2.75;1.00;;;;;24.26;43.63;100808.88;4975407;28;45338;-46
2023/08/28 10:16:24;;;;;;;;;3.00;2.00;;;;;24.25;43.25;100815.13;4960456;28;45478;-41
2023/08/28 10:19:06;;;;;;;;;1.00;1.00;;;;;24.26;43.91;100813.31;4960550;28;45600;-42
2023/08/28 10:21:33;;;;;;;;;2.00;1.75;;;;;24.26;43.26;100815.97;4960124;28;46063;-48
2023/08/28 10:23:59;;;;;;;;;1.25;1.25;;;;;24.24;43.55;100821.38;4960207;28;45334;-45
2023/08/28 10:26:26;;;;;;;;;1.25;1.25;;;;;24.23;43.25;100823.19;4959184;28;45354;-41
2023/08/28 10:28:52;;;;;;;;;2.25;2.25;;;;;24.23;43.42;100820.56;4960302;28;45325;-39
2023/08/28 10:31:19;;;;;;;;;0.75;0.50;;;;;24.23;43.17;100827.63;4959963;28;46448;-39
2023/08/28 10:33:47;;;;;;;;;1.00;1.00;;;;;24.23;43.20;100830.28;4958745;28;45879;-39
2023/08/28 10:36:15;;;;;;;;;3.75;2.00;;;;;24.20;43.26;100825.19;4959218;28;45487;-39
2023/08/28 10:38:42;;;;;;;;;1.25;1.25;;;;;24.22;43.99;100832.09;4960426;28;45295;-41
2023/08/28 10:41:08;;;;;;;;;2.00;2.00;;;;;24.23;44.11;100835.59;4959698;28;46171;-39
2023/08/28 10:43:33;;;;;;;;;1.25;1.25;;;;;24.19;43.38;100829.66;4958583;28;45279;-39
2023/08/28 10:46:02;;;;;;;;;3.50;2.00;;;;;24.22;44.07;100833.88;4959937;28;45348;-40
2023/08/28 10:48:28;;;;;;;;;4.50;1.75;;;;;24.21;43.75;100832.19;4960091;28;45512;-39
2023/08/28 10:50:57;;;;;;;;;2.75;1.50;;;;;24.21;43.73;100837.47;4959493;28;45634;-43
2023/08/28 10:53:23;;;;;;;;;2.50;2.50;;;;;24.22;44.24;100833.88;4959498;28;45400;-42
2023/08/28 10:55:55;;;;;;;;;1.25;1.25;;;;;24.22;43.66;100828.59;4958388;28;45314;-42
2023/08/28 10:58:20;;;;;;;;;3.00;1.00;;;;;24.23;43.81;100827.63;4958545;28;45246;-40
2023/08/28 11:00:46;;;;;;;;;2.00;2.00;;;;;24.22;44.24;100829.44;4959354;28;45484;-41
2023/08/28 11:03:15;;;;;;;;;2.00;2.00;;;;;24.23;44.06;100828.50;4959572;28;45479;-43
2023/08/28 11:05:42;;;;;;;;;1.50;1.50;;;;;24.25;44.39;100828.38;4959830;28;45481;-42
2023/08/28 11:08:09;;;;;;;;;2.00;2.00;;;;;24.25;44.11;100823.09;4959613;28;45511;-43
2023/08/28 11:10:38;;;;;;;;;1.50;1.50;;;;;24.24;43.80;100822.25;4959366;28;47300;-39
2023/08/28 11:13:05;;;;;;;;;1.25;1.25;;;;;24.25;44.36;100817.78;4959295;28;45251;-42
2023/08/28 11:15:49;;;;;;;;;1.00;1.00;;;;;24.27;43.89;100813.22;4959447;28;45331;-41
2023/08/28 11:18:18;;;;;;;;;2.00;2.00;;;;;24.28;43.97;100816.72;4959831;28;46240;-40
2023/08/28 11:20:51;;;;;;;;;2.00;2.00;;;;;24.28;43.78;100812.28;4958018;28;47772;-40
2023/08/28 11:23:38;;;;;;;;;2.50;2.50;;;;;24.28;44.31;100809.63;4959166;28;45876;-44
2023/08/28 11:26:16;;;;;;;;;2.00;2.00;;;;;24.29;44.03;100802.50;4959293;28;45428;-44
2023/08/28 11:28:46;;;;;;;;;2.25;2.00;;;;;24.29;44.35;100798.06;4959596;28;45585;-44
2023/08/28 11:31:12;;;;;;;;;2.00;2.00;;;;;24.29;44.30;100798.06;4959191;28;45479;-44
2023/08/28 11:33:39;;;;;;;;;2.00;2.00;;;;;24.29;43.75;100792.78;4958867;28;45417;-48
2023/08/28 11:36:05;;;;;;;;;4.00;2.00;;;;;24.31;43.77;100797.97;4959169;28;45407;-49
2023/08/28 11:38:31;;;;;;;;;2.00;1.00;;;;;24.31;43.65;100796.13;4959155;28;45268;-44
2023/08/28 11:41:04;;;;;;;;;2.00;2.00;;;;;24.33;43.92;100799.53;4958840;28;45322;-46
2023/08/28 11:43:33;;;;;;;;;1.00;1.00;;;;;24.35;43.66;100797.63;4957626;28;45433;-40
2023/08/28 11:45:58;;;;;;;;;2.00;2.00;;;;;24.35;43.80;100800.28;4959053;28;45424;-41
2023/08/28 11:48:24;;;;;;;;;2.00;2.00;;;;;24.33;43.35;100799.53;4959099;28;45566;-39
2023/08/28 11:50:56;;;;;;;;;2.00;2.00;;;;;24.37;43.52;100805.44;4958509;28;46227;-41
2023/08/28 11:53:33;;;;;;;;;2.50;2.50;;;;;24.36;43.77;100804.63;4958828;28;45690;-39
2023/08/28 11:56:00;;;;;;;;;1.00;1.00;;;;;24.37;43.58;100805.44;4973710;28;45379;-39
2023/08/28 11:58:26;;;;;;;;;1.00;1.00;;;;;24.37;43.94;100808.97;4958709;28;45314;-40
2023/08/28 12:00:51;;;;;;;;;1.00;1.00;;;;;24.37;43.33;100810.75;4958470;28;46015;-40
2023/08/28 12:03:18;;;;;;;;;2.50;1.00;;;;;24.35;43.50;100804.75;4958723;28;45339;-43
2023/08/28 12:05:44;;;;;;;;;2.00;1.00;;;;;24.36;43.68;100809.91;4958346;28;45471;-42
2023/08/28 12:08:10;;;;;;;;;2.25;2.25;;;;;24.36;43.48;100809.91;4958753;28;45669;-42
2023/08/28 12:10:35;;;;;;;;;2.00;1.75;;;;;24.36;43.22;100809.91;4958158;28;46971;-39
2023/08/28 12:13:01;;;;;;;;;4.00;1.25;;;;;24.38;43.66;100812.44;4957045;28;45391;-43
2023/08/28 12:15:33;;;;;;;;;1.00;1.00;;;;;24.35;43.78;100805.56;4957897;28;57821;-39
2023/08/28 12:18:03;;;;;;;;;3.00;2.00;;;;;24.37;43.30;100813.41;4958631;28;45864;-40
2023/08/28 12:20:36;;;;;;;;;3.50;2.00;;;;;24.38;43.25;100813.31;4958135;28;47190;-45
2023/08/28 12:23:02;;;;;;;;;2.50;1.25;;;;;24.35;43.83;100802.91;4957067;28;45321;-47
2023/08/28 12:25:35;;;;;;;;;3.00;3.00;;;;;24.36;42.97;100804.63;4958258;28;45353;-50
2023/08/28 12:28:06;;;;;;;;;1.00;1.00;;;;;24.37;43.04;100801.00;4958460;28;45452;-48
2023/08/28 12:30:32;;;;;;;;;1.50;1.50;;;;;24.37;43.21;100800.16;4958122;28;46140;-40
2023/08/28 12:32:57;;;;;;;;;2.00;2.00;;;;;24.38;42.96;100801.84;4958159;28;45401;-39
2023/08/28 12:35:22;;;;;;;;;2.25;2.25;;;;;24.37;43.43;100806.31;4957667;28;53649;-41
2023/08/28 12:37:51;;;;;;;;;2.00;1.50;;;;;24.36;43.36;100806.44;4958419;28;45475;-42
2023/08/28 12:40:17;;;;;;;;;1.75;1.75;;;;;24.38;43.43;100812.44;4958250;28;47330;-43
2023/08/28 12:42:42;;;;;;;;;1.00;1.00;;;;;24.37;42.96;100811.59;4957957;28;45242;-46
2023/08/28 12:45:07;;;;;;;;;3.25;2.00;;;;;24.37;42.83;100805.44;4957886;28;45295;-44
2023/08/28 12:47:33;;;;;;;;;1.75;1.75;;;;;24.36;43.55;100799.31;4958172;28;45322;-43
2023/08/28 12:49:58;;;;;;;;;1.00;1.00;;;;;24.37;43.24;100794.84;4957198;28;65211;-44
2023/08/28 12:52:23;;;;;;;;;1.50;1.50;;;;;24.38;42.89;100793.91;4957696;28;45444;-48
2023/08/28 12:54:49;;;;;;;;;1.00;1.00;;;;;24.38;43.50;100792.13;4958009;28;45794;-45
2023/08/28 12:57:14;;;;;;;;;1.75;1.75;;;;;24.39;42.84;100798.25;4957418;28;50349;-40
2023/08/28 12:59:39;;;;;;;;;2.00;2.00;;;;;24.40;42.92;100799.94;4957492;28;45379;-39
2023/08/28 13:02:05;;;;;;;;;1.75;1.75;;;;;24.41;42.74;100793.69;4957432;28;45326;-40
2023/08/28 13:04:30;;;;;;;;;1.00;1.00;;;;;24.42;42.75;100797.19;4957746;28;45389;-39
2023/08/28 13:06:56;;;;;;;;;1.00;1.00;;;;;24.41;42.82;100791.03;4956991;28;59437;-41
2023/08/28 13:09:22;;;;;;;;;1.75;1.00;;;;;24.43;42.57;100798.84;4957685;28;46398;-39
2023/08/28 13:11:49;;;;;;;;;2.00;2.00;;;;;24.41;42.56;100793.69;4957786;28;45274;-40
2023/08/28 13:14:14;;;;;;;;;1.00;1.00;;;;;24.40;43.11;100792.00;4957485;28;45451;-40
2023/08/28 13:16:41;;;;;;;;;1.75;1.50;;;;;24.41;43.20;100788.38;4956648;28;45429;-41
2023/08/28 13:19:06;;;;;;;;;1.75;1.75;;;;;24.42;42.56;100789.25;4957275;28;45461;-42
2023/08/28 13:21:32;;;;;;;;;1.50;1.50;;;;;24.41;42.89;100783.09;4957213;28;45321;-41
2023/08/28 13:23:57;;;;;;;;;2.00;2.00;;;;;24.40;42.70;100794.63;4957382;28;45254;-41
2023/08/28 13:26:23;;;;;;;;;2.00;2.00;;;;;24.39;42.54;100795.59;4957811;28;45828;-41
2023/08/28 13:28:49;;;;;;;;;1.25;1.25;;;;;24.39;42.79;100801.75;4957439;28;46281;-39
2023/08/28 13:31:14;;;;;;;;;2.00;2.00;;;;;24.40;42.35;100794.63;4957331;28;45278;-40
2023/08/28 13:33:39;;;;;;;;;2.50;2.00;;;;;24.39;42.38;100791.16;4957375;28;45184;-44
2023/08/28 13:36:07;;;;;;;;;2.00;2.00;;;;;24.38;42.81;100786.81;4956130;28;45549;-43
2023/08/28 13:38:33;;;;;;;;;2.00;2.00;;;;;24.38;42.40;100791.25;4957107;28;47036;-45
2023/08/28 13:41:00;;;;;;;;;2.25;1.75;;;;;24.36;42.52;100788.72;4957142;28;45388;-41
2023/08/28 13:43:25;;;;;;;;;1.00;1.00;;;;;24.37;42.47;100792.19;4957322;28;45302;-44
2023/08/28 13:45:51;;;;;;;;;2.25;2.00;;;;;24.37;42.31;100794.84;4957630;28;45423;-43
2023/08/28 13:48:16;;;;;;;;;1.00;1.00;;;;;24.36;42.47;100791.38;4955697;28;47020;-41
2023/08/28 13:50:42;;;;;;;;;3.50;1.25;;;;;24.36;43.02;100790.53;4956907;28;45211;-40
2023/08/28 13:53:08;;;;;;;;;3.00;2.00;;;;;24.35;42.89;100780.91;4957146;28;45228;-41
2023/08/28 13:55:33;;;;;;;;;2.00;1.00;;;;;24.34;43.03;100785.34;4957139;28;45464;-40
2023/08/28 13:58:00;;;;;;;;;2.00;2.00;;;;;24.34;42.58;100782.69;4956058;28;66699;-41
2023/08/28 14:00:26;;;;;;;;;1.00;1.00;;;;;24.36;42.95;100782.59;4956849;28;45504;-44
2023/08/28 14:02:51;;;;;;;;;3.00;1.00;;;;;24.36;42.26;100782.59;4957128;28;45400;-43
2023/08/28 14:05:17;;;;;;;;;2.00;2.00;;;;;24.37;42.54;100792.19;4955641;28;45449;-42
2023/08/28 14:07:43;;;;;;;;;1.25;1.00;;;;;24.35;42.71;100788.84;4956720;28;46754;-40
2023/08/28 14:10:09;;;;;;;;;1.75;1.75;;;;;24.35;42.29;100788.84;4956838;28;45425;-42
2023/08/28 14:12:35;;;;;;;;;3.50;1.00;;;;;24.34;42.66;100785.34;4956795;28;45397;-50
2023/08/28 14:15:03;;;;;;;;;3.00;2.00;;;;;24.37;42.72;100778.97;4957080;28;45408;-44
2023/08/28 14:17:30;;;;;;;;;1.25;1.25;;;;;24.37;42.24;100785.13;4955436;28;45552;-41
2023/08/28 14:19:56;;;;;;;;;1.00;1.00;;;;;24.35;42.60;100787.03;4956714;28;45426;-42
2023/08/28 14:22:21;;;;;;;;;1.25;1.25;;;;;24.35;42.41;100784.38;4957180;28;45337;-44
2023/08/28 14:24:47;;;;;;;;;1.00;1.00;;;;;24.36;42.71;100788.72;4956817;28;45524;-41
2023/08/28 14:27:12;;;;;;;;;2.25;2.00;;;;;24.35;42.71;100780.91;4956478;28;46578;-41
2023/08/28 14:29:38;;;;;;;;;1.00;1.00;;;;;24.34;42.72;100785.34;4959300;28;45461;-42
2023/08/28 14:32:03;;;;;;;;;1.00;1.00;;;;;24.36;42.60;100780.78;4959974;28;45693;-44
2023/08/28 14:34:28;;;;;;;;;1.00;1.00;;;;;24.36;42.03;100777.28;4958718;28;45394;-41
2023/08/28 14:36:55;;;;;;;;;2.00;2.00;;;;;24.38;42.76;100780.66;4960059;28;45479;-42
2023/08/28 14:39:20;;;;;;;;;1.50;1.00;;;;;24.37;42.68;100774.53;4959689;28;45715;-42
2023/08/28 14:41:46;;;;;;;;;1.00;1.00;;;;;24.37;42.53;100774.53;4959990;28;45343;-39
2023/08/28 14:44:12;;;;;;;;;2.25;1.00;;;;;24.38;42.11;100783.31;4958656;28;45439;-41
2023/08/28 14:46:37;;;;;;;;;1.50;1.00;;;;;24.38;42.55;100778.88;4959577;28;46085;-41
2023/08/28 14:49:02;;;;;;;;;0.25;0.25;;;;;24.38;41.98;100775.34;4958580;28;45680;-42
2023/08/28 14:51:28;;;;;;;;;1.00;1.00;;;;;24.38;42.19;100778.88;4959991;28;45659;-40
2023/08/28 14:53:55;;;;;;;;;1.00;1.00;;;;;24.38;42.36;100778.88;4960134;28;45247;-40
2023/08/28 14:56:23;;;;;;;;;1.00;1.00;;;;;24.38;41.93;100778.00;4959548;28;46243;-41
2023/08/28 14:58:48;;;;;;;;;1.25;0.50;;;;;24.37;41.87;100771.88;4959363;28;45393;-41
2023/08/28 15:01:16;;;;;;;;;1.00;1.00;;;;;24.38;42.18;100776.22;4959605;28;45389;-39
2023/08/28 15:03:43;;;;;;;;;1.00;1.00;;;;;24.39;41.87;100766.44;4959595;28;45501;-41
2023/08/28 15:06:08;;;;;;;;;2.00;2.00;;;;;24.38;42.10;100775.34;4958155;28;47938;-40
2023/08/28 15:08:34;;;;;;;;;1.00;1.00;;;;;24.38;42.12;100772.69;4958648;28;66585;-43
2023/08/28 15:11:00;;;;;;;;;1.25;1.00;;;;;24.36;41.70;100764.88;4959643;28;45266;-40
2023/08/28 15:13:25;;;;;;;;;1.75;1.50;;;;;24.38;41.94;100770.06;4959994;28;45243;-39
2023/08/28 15:15:51;;;;;;;;;1.75;1.75;;;;;24.37;41.56;100769.22;4958671;28;58590;-39
2023/08/28 15:18:17;;;;;;;;;2.00;1.00;;;;;24.38;41.85;100770.06;4958998;28;45760;-39
2023/08/28 15:20:43;;;;;;;;;1.00;1.00;;;;;24.37;41.89;100758.63;4959380;28;45395;-42
2023/08/28 15:23:08;;;;;;;;;1.75;1.00;;;;;24.36;41.95;100772.00;4959352;28;45295;-39
2023/08/28 15:25:33;;;;;;;;;1.00;1.00;;;;;24.37;41.47;100773.66;4958958;28;46835;-44
2023/08/28 15:27:59;;;;;;;;;1.25;1.25;;;;;24.37;42.08;100778.97;4959381;28;45440;-42
2023/08/28 15:30:24;;;;;;;;;1.00;1.00;;;;;24.37;41.98;100785.13;4959132;28;45416;-40
2023/08/28 15:32:49;;;;;;;;;1.75;1.00;;;;;24.37;41.47;100774.53;4959420;28;45315;-45
2023/08/28 15:35:15;;;;;;;;;1.25;1.00;;;;;24.37;41.96;100779.81;4958839;28;45326;-47
2023/08/28 15:37:40;;;;;;;;;3.00;1.00;;;;;24.37;41.40;100778.97;4957765;28;45331;-45
2023/08/28 15:40:07;;;;;;;;;1.00;1.00;;;;;24.35;41.74;100781.72;4958073;28;45206;-43
2023/08/28 15:42:32;;;;;;;;;3.25;1.50;;;;;24.34;41.71;100773.91;4959226;28;45608;-43
2023/08/28 15:44:58;;;;;;;;;3.00;1.75;;;;;24.35;41.24;100780.91;4957850;28;46508;-40
2023/08/28 15:47:24;;;;;;;;;0.00;0.00;;;;;24.36;41.33;100782.59;4958663;28;45342;-46
2023/08/28 15:49:49;;;;;;;;;1.00;1.00;;;;;24.34;41.68;100774.75;4973825;28;45212;-39
2023/08/28 15:52:15;;;;;;;;;1.00;1.00;;;;;24.34;41.76;100787.16;4959028;28;45697;-44
2023/08/28 15:54:44;;;;;;;;;1.00;1.00;;;;;24.34;41.87;100784.50;4958213;28;59530;-42
2023/08/28 15:57:10;;;;;;;;;2.25;1.50;;;;;24.33;41.13;100783.63;4958597;28;45449;-47
2023/08/28 15:59:35;;;;;;;;;1.00;1.00;;;;;24.32;41.51;100781.94;4958651;28;45382;-43
2023/08/28 16:02:01;;;;;;;;;1.00;1.00;;;;;24.32;41.78;100784.59;4957728;28;45304;-45
2023/08/28 16:04:26;;;;;;;;;3.00;1.75;;;;;24.32;41.75;100783.75;4958296;28;47036;-43
2023/08/28 16:06:51;;;;;;;;;0.00;0.00;;;;;24.32;41.44;100783.75;4958595;28;45235;-43
2023/08/28 16:09:17;;;;;;;;;0.25;0.25;;;;;24.31;41.09;100774.94;4958644;28;45277;-45
2023/08/28 16:11:49;;;;;;;;;0.00;0.00;;;;;24.32;41.38;100783.75;4957469;28;45553;-43
2023/08/28 16:14:15;;;;;;;;;1.25;1.25;;;;;24.31;41.18;100782.06;4958288;28;47178;-41
2023/08/28 16:16:40;;;;;;;;;1.00;1.00;;;;;24.31;41.53;100779.41;4958306;28;45338;-41
2023/08/28 16:19:06;;;;;;;;;1.00;1.00;;;;;24.30;41.26;100781.22;4957830;28;51995;-43
2023/08/28 16:21:34;;;;;;;;;1.00;1.00;;;;;24.28;41.64;100779.63;4958871;28;45556;-45
2023/08/28 16:24:00;;;;;;;;;2.25;1.00;;;;;24.30;41.38;100778.59;4958511;28;45286;-40
2023/08/28 16:26:25;;;;;;;;;1.00;1.00;;;;;24.29;40.77;100778.69;4958240;28;45488;-41
2023/08/28 16:28:51;;;;;;;;;2.75;1.25;;;;;24.30;40.95;100778.59;4958361;28;45466;-41
2023/08/28 16:31:16;;;;;;;;;1.00;1.00;;;;;24.29;41.08;100779.53;4957764;28;53601;-41
2023/08/28 16:33:41;;;;;;;;;1.00;1.00;;;;;24.27;40.73;100775.28;4957805;28;51194;-43
2023/08/28 16:36:07;;;;;;;;;1.50;1.50;;;;;24.26;40.83;100769.16;4956849;28;45377;-44
2023/08/28 16:38:32;;;;;;;;;1.00;1.00;;;;;24.28;41.17;100772.53;4958541;28;45336;-42
2023/08/28 16:40:58;;;;;;;;;4.50;1.00;;;;;24.29;41.49;100781.31;4958255;28;45605;-42
2023/08/28 16:43:23;;;;;;;;;2.00;1.00;;;;;24.28;41.20;100780.50;4957341;28;65284;-42
2023/08/28 16:45:48;;;;;;;;;1.00;1.00;;;;;24.28;41.33;100779.63;4957824;28;45531;-42
2023/08/28 16:48:14;;;;;;;;;1.00;1.00;;;;;24.26;40.84;100782.41;4958070;28;45309;-44
2023/08/28 16:50:41;;;;;;;;;1.25;1.25;;;;;24.28;41.39;100780.50;4957980;28;45623;-44
2023/08/28 16:53:07;;;;;;;;;1.00;1.00;;;;;24.28;40.88;100785.78;4957574;28;47249;-43
2023/08/28 16:55:32;;;;;;;;;1.00;1.00;;;;;24.28;41.48;100780.50;4958206;28;45263;-43
2023/08/28 16:57:57;;;;;;;;;0.00;0.00;;;;;24.28;41.41;100771.69;4957843;28;45909;-44
2023/08/28 17:00:23;;;;;;;;;1.00;1.00;;;;;24.29;41.12;100779.53;4957567;28;45223;-41
2023/08/28 17:02:49;;;;;;;;;1.00;1.00;;;;;24.28;40.82;100780.50;4957088;28;54540;-43
2023/08/28 17:05:14;;;;;;;;;0.00;0.00;;;;;24.27;40.83;100778.81;4957625;28;45338;-41
2023/08/28 17:07:40;;;;;;;;;1.00;1.00;;;;;24.29;41.21;100778.69;4957780;28;45306;-39
2023/08/28 17:10:06;;;;;;;;;2.00;2.00;;;;;24.30;40.88;100773.28;4958242;28;45440;-40
2023/08/28 17:12:33;;;;;;;;;1.00;1.00;;;;;24.27;40.95;100772.63;4957874;28;46025;-41
2023/08/28 17:14:58;;;;;;;;;1.00;1.00;;;;;24.27;40.63;100773.50;4957454;28;45845;-42
2023/08/28 17:17:23;;;;;;;;;2.25;1.00;;;;;24.28;40.93;100775.19;4957374;28;45785;-47
2023/08/28 17:19:48;;;;;;;;;1.25;1.25;;;;;24.30;41.45;100788.31;4957700;28;45568;-43
2023/08/28 17:22:14;;;;;;;;;1.75;1.75;;;;;24.29;41.02;100776.03;4957400;28;45466;-44
2023/08/28 17:24:39;;;;;;;;;3.25;2.00;;;;;24.29;40.91;100783.97;4957426;28;45367;-42
2023/08/28 17:27:04;;;;;;;;;1.00;1.00;;;;;24.28;41.48;100785.78;4957824;28;45360;-42
2023/08/28 17:29:30;;;;;;;;;1.00;1.00;;;;;24.29;41.19;100781.31;4955839;28;49224;-41
2023/08/28 17:31:55;;;;;;;;;1.00;1.00;;;;;24.29;41.10;100786.63;4956947;28;54071;-40
2023/08/28 17:34:21;;;;;;;;;1.00;1.00;;;;;24.29;41.34;100786.63;4957253;28;45330;-38
2023/08/28 17:36:46;;;;;;;;;1.00;1.00;;;;;24.27;40.38;100784.09;4957339;28;45331;-40
2023/08/28 17:39:13;;;;;;;;;1.50;0.50;;;;;24.29;41.26;100792.78;4957398;28;45220;-41
2023/08/28 17:41:40;;;;;;;;;1.50;1.00;;;;;24.28;41.22;100791.09;4957110;28;46329;-39
2023/08/28 17:44:07;;;;;;;;;4.00;2.00;;;;;24.27;41.36;100805.28;4957301;28;45268;-41
2023/08/28 17:46:33;;;;;;;;;1.00;1.00;;;;;24.28;40.85;100803.47;4957236;28;45330;-41
2023/08/28 17:48:58;;;;;;;;;0.00;0.00;;;;;24.27;40.72;100807.06;4957489;28;45800;-39
2023/08/28 17:51:24;;;;;;;;;1.25;1.25;;;;;24.27;40.96;100804.41;4956869;28;47082;-40
2023/08/28 17:53:49;;;;;;;;;2.00;2.00;;;;;24.26;41.21;100806.25;4956347;28;63379;-40
2023/08/28 17:56:14;;;;;;;;;1.00;1.00;;;;;24.27;40.59;100804.41;4955322;28;54286;-38
2023/08/28 17:58:41;;;;;;;;;1.00;1.00;;;;;24.27;40.98;100804.41;4955838;28;45564;-38
2023/08/28 18:01:06;;;;;;;;;2.25;1.50;;;;;24.26;40.93;100808.88;4957273;28;46379;-40
2023/08/28 18:03:32;;;;;;;;;2.00;2.00;;;;;24.25;40.55;100807.19;4957727;28;53818;-39
2023/08/28 18:05:57;;;;;;;;;1.25;1.25;;;;;24.26;40.63;100814.19;4960282;28;50282;-40
2023/08/28 18:08:22;;;;;;;;;2.25;1.00;;;;;24.26;41.14;100814.19;4960702;28;45576;-41
2023/08/28 18:10:48;;;;;;;;;1.00;1.00;;;;;24.27;40.42;100817.66;4960123;28;47478;-42
2023/08/28 18:13:13;;;;;;;;;1.00;0.25;;;;;24.24;40.58;100816.94;4960385;28;45312;-41
2023/08/28 18:15:39;;;;;;;;;1.00;0.00;;;;;24.26;40.46;100827.44;4960423;28;45251;-45
2023/08/28 18:18:08;;;;;;;;;1.00;1.00;;;;;24.26;40.93;100818.63;4960509;28;45472;-39
2023/08/28 18:20:33;;;;;;;;;1.00;1.00;;;;;24.25;41.00;100817.78;4960166;28;45377;-40
2023/08/28 18:23:01;;;;;;;;;1.25;1.25;;;;;24.23;40.83;100822.34;4960027;28;45611;-39
2023/08/28 18:25:27;;;;;;;;;1.00;1.00;;;;;24.24;40.55;100831.97;4960251;28;45413;-44
2023/08/28 18:27:52;;;;;;;;;1.00;1.00;;;;;24.23;41.11;100828.50;4960285;28;45330;-41
2023/08/28 18:30:18;;;;;;;;;1.00;1.00;;;;;24.22;40.86;100833.88;4959349;28;59921;-41
2023/08/28 18:32:44;;;;;;;;;2.00;2.00;;;;;24.22;40.79;100832.09;4959978;28;45329;-42
2023/08/28 18:35:09;;;;;;;;;1.50;1.50;;;;;24.22;40.52;100834.75;4960229;28;45329;-38
2023/08/28 18:37:34;;;;;;;;;1.00;1.00;;;;;24.22;40.93;100844.47;4960049;28;45540;-39
2023/08/28 18:40:00;;;;;;;;;2.00;1.00;;;;;24.23;40.71;100848.81;4959468;28;49468;-38
2023/08/28 18:42:25;;;;;;;;;1.00;1.00;;;;;24.17;41.02;100841.31;4959195;28;60054;-40
2023/08/28 18:44:50;;;;;;;;;1.00;1.00;;;;;24.22;40.66;100855.06;4959846;28;45421;-44
2023/08/28 18:47:16;;;;;;;;;1.75;1.00;;;;;24.23;40.40;100862.06;4959997;28;45345;-40
2023/08/28 18:49:44;;;;;;;;;2.75;2.00;;;;;24.22;40.33;100860.38;4959886;28;45349;-43
2023/08/28 18:52:10;;;;;;;;;1.00;1.00;;;;;24.20;40.72;100864.91;4959850;28;45716;-39
2023/08/28 18:54:35;;;;;;;;;1.25;1.00;;;;;24.21;40.22;100863.97;4959861;28;45317;-42
2023/08/28 18:57:01;;;;;;;;;1.25;1.00;;;;;24.20;40.69;100872.88;4959856;28;45215;-40
2023/08/28 18:59:26;;;;;;;;;3.00;1.25;;;;;24.19;40.73;100876.50;4959017;28;53955;-40
2023/08/28 19:01:52;;;;;;;;;1.00;1.00;;;;;24.18;40.30;100875.63;4959472;28;45231;-38
2023/08/28 19:04:17;;;;;;;;;1.00;1.00;;;;;24.19;40.35;100881.78;4959376;28;45282;-40
2023/08/28 19:06:43;;;;;;;;;1.75;1.00;;;;;24.18;40.71;100880.94;4959929;28;45528;-41
2023/08/28 19:09:08;;;;;;;;;1.50;1.00;;;;;24.19;40.25;100881.78;4959591;28;46130;-40
2023/08/28 19:11:33;;;;;;;;;1.75;1.75;;;;;24.17;40.25;100887.19;4959296;28;45236;-40
2023/08/28 19:13:59;;;;;;;;;1.00;1.00;;;;;24.18;40.19;100894.16;4957612;28;45278;-39
2023/08/28 19:16:24;;;;;;;;;1.00;1.00;;;;;24.16;40.57;100896.06;4958799;28;45350;-39
2023/08/28 19:18:49;;;;;;;;;2.00;1.00;;;;;24.18;40.64;100901.28;4959148;28;46623;-40
2023/08/28 19:21:16;;;;;;;;;3.00;1.00;;;;;24.17;40.13;100905.72;4958528;28;61550;-40
2023/08/28 19:23:41;;;;;;;;;1.00;1.00;;;;;24.15;40.76;100899.66;4959563;28;45435;-41
2023/08/28 19:26:07;;;;;;;;;3.00;1.00;;;;;24.16;39.94;100903.19;4959384;28;45337;-42
2023/08/28 19:28:32;;;;;;;;;1.00;1.00;;;;;24.15;40.46;100907.63;4959008;28;46885;-40
2023/08/28 19:30:58;;;;;;;;;1.25;0.75;;;;;24.15;40.49;100907.63;4958809;28;48227;-42
2023/08/28 19:33:24;;;;;;;;;1.25;1.00;;;;;24.15;40.32;100909.44;4959112;28;45393;-44
2023/08/28 19:35:49;;;;;;;;;1.50;1.50;;;;;24.16;40.07;100911.13;4959381;28;45419;-41
2023/08/28 19:38:15;;;;;;;;;2.25;1.00;;;;;24.15;40.59;100918.22;4958916;28;46953;-40
2023/08/28 19:40:40;;;;;;;;;1.25;0.75;;;;;24.15;39.93;100927.97;4959226;28;45338;-40
2023/08/28 19:43:05;;;;;;;;;2.00;1.00;;;;;24.14;39.86;100921.84;4958470;28;53815;-42
2023/08/28 19:45:30;;;;;;;;;0.75;0.75;;;;;24.15;40.17;100927.97;4959212;28;45516;-43
2023/08/28 19:47:56;;;;;;;;;1.00;1.00;;;;;24.12;40.33;100929.03;4958770;28;45324;-41
2023/08/28 19:50:21;;;;;;;;;0.75;0.75;;;;;24.13;39.93;100927.22;4958832;28;45337;-41
2023/08/28 19:52:47;;;;;;;;;1.25;1.25;;;;;24.14;40.37;100931.56;4957455;28;45303;-38
2023/08/28 19:55:14;;;;;;;;;0.00;0.00;;;;;24.11;39.90;100932.63;4959309;28;45564;-43